Time;durP1;ratioP1;P1;durP2;ratioP2;P2;SDS_P1;SDS_P2;PMS_P1;PMS_P2;Temp;Humidity;BMP_temperature;BMP_pressure;BME280_temperature;BME280_humidity;BME280_pressure;Samples;Min_cycle;Max_cycle;Signal;HPM_P1;HPM_P2
2023/09/21 00:01:05;;;;;;;0.00;0.00;;;;;;;;;;4955424;28;20034;-82
2023/09/21 00:03:31;;;;;;;0.00;0.00;;;;;;;;;;4979905;28;20062;-82
2023/09/21 00:05:57;;;;;;;0.00;0.00;;;;;;;;;;4985591;28;20060;-83
2023/09/21 00:08:23;;;;;;;0.00;0.00;;;;;;;;;;4995729;28;20062;-82
2023/09/21 00:10:53;;;;;;;0.00;0.00;;;;;;;;;;4977108;28;20053;-82
2023/09/21 00:13:19;;;;;;;0.00;0.00;;;;;;;;;;4961855;28;20038;-83
2023/09/21 00:15:45;;;;;;;0.00;0.00;;;;;;;;;;4962050;28;20465;-83
2023/09/21 00:18:10;;;;;;;0.00;0.00;;;;;;;;;;4961634;28;20034;-82
2023/09/21 00:20:42;;;;;;;0.00;0.00;;;;;;;;;;4978769;28;20372;-83
2023/09/21 00:23:08;;;;;;;0.00;0.00;;;;;;;;;;5005805;28;20038;-83
2023/09/21 00:25:34;;;;;;;0.00;0.00;;;;;;;;;;4975981;28;20121;-82
2023/09/21 00:28:00;;;;;;;0.00;0.00;;;;;;;;;;4978378;28;20042;-82
2023/09/21 00:30:27;;;;;;;0.00;0.00;;;;;;;;;;4977781;28;20117;-82
2023/09/21 00:32:52;;;;;;;0.00;0.00;;;;;;;;;;4978101;28;20034;-83
2023/09/21 00:35:19;;;;;;;0.00;0.00;;;;;;;;;;4995204;28;20419;-83
2023/09/21 00:37:46;;;;;;;0.00;0.00;;;;;;;;;;4961969;28;20053;-82
2023/09/21 00:40:18;;;;;;;0.00;0.00;;;;;;;;;;4977981;28;20026;-83
2023/09/21 00:42:44;;;;;;;0.00;0.00;;;;;;;;;;4995099;28;20046;-82
2023/09/21 00:45:10;;;;;;;0.00;0.00;;;;;;;;;;4969974;28;20026;-82
2023/09/21 00:47:42;;;;;;;0.00;0.00;;;;;;;;;;5003441;28;20030;-81
2023/09/21 00:50:11;;;;;;;0.00;0.00;;;;;;;;;;4962884;28;20038;-82
2023/09/21 00:52:43;;;;;;;0.00;0.00;;;;;;;;;;4976979;28;20050;-82
2023/09/21 00:55:25;;;;;;;0.00;0.00;;;;;;;;;;4954544;28;20046;-83
2023/09/21 00:57:53;;;;;;;0.00;0.00;;;;;;;;;;4977863;28;20034;-81
2023/09/21 01:00:19;;;;;;;0.00;0.00;;;;;;;;;;4961669;28;20108;-81
2023/09/21 01:02:46;;;;;;;0.00;0.00;;;;;;;;;;4961292;28;20038;-83
2023/09/21 01:05:13;;;;;;;0.00;0.00;;;;;;;;;;4977353;28;20034;-82
2023/09/21 01:07:39;;;;;;;0.00;0.00;;;;;;;;;;4969685;28;20042;-83
2023/09/21 01:10:07;;;;;;;0.00;0.00;;;;;;;;;;4984924;28;20038;-83
2023/09/21 01:12:34;;;;;;;0.00;0.00;;;;;;;;;;4961407;28;20046;-83
2023/09/21 01:15:09;;;;;;;0.00;0.00;;;;;;;;;;4960987;28;20049;-84
2023/09/21 01:17:34;;;;;;;0.00;0.00;;;;;;;;;;4994832;28;20034;-83
2023/09/21 01:20:03;;;;;;;0.00;0.00;;;;;;;;;;4993510;28;20028;-83
2023/09/21 01:22:29;;;;;;;0.00;0.00;;;;;;;;;;4978285;28;20363;-83
2023/09/21 01:24:54;;;;;;;0.00;0.00;;;;;;;;;;4965347;28;20034;-84
2023/09/21 01:27:20;;;;;;;0.00;0.00;;;;;;;;;;4998650;28;20061;-82
2023/09/21 01:29:46;;;;;;;0.00;0.00;;;;;;;;;;5004140;28;20050;-83
2023/09/21 01:32:12;;;;;;;0.00;0.00;;;;;;;;;;5006602;28;20463;-82
2023/09/21 01:34:38;;;;;;;0.00;0.00;;;;;;;;;;4998455;28;20133;-83
2023/09/21 01:37:05;;;;;;;0.00;0.00;;;;;;;;;;4964894;28;20114;-81
2023/09/21 01:39:31;;;;;;;0.00;0.00;;;;;;;;;;4998589;28;20081;-82
2023/09/21 01:41:56;;;;;;;0.00;0.00;;;;;;;;;;4996769;28;20484;-82
2023/09/21 01:44:22;;;;;;;0.00;0.00;;;;;;;;;;4998051;28;20030;-83
2023/09/21 01:46:49;;;;;;;0.00;0.00;;;;;;;;;;4980508;28;20068;-82
2023/09/21 01:49:16;;;;;;;0.00;0.00;;;;;;;;;;5013284;28;20034;-82
2023/09/21 01:51:41;;;;;;;0.00;0.00;;;;;;;;;;4984331;28;20014;-83
2023/09/21 01:54:07;;;;;;;0.00;0.00;;;;;;;;;;5011211;28;20110;-82
2023/09/21 01:56:34;;;;;;;0.00;0.00;;;;;;;;;;4993489;28;20038;-82
2023/09/21 01:59:00;;;;;;;0.00;0.00;;;;;;;;;;4947477;29;20160;-82
2023/09/21 02:01:26;;;;;;;0.00;0.00;;;;;;;;;;4973422;28;20047;-82
2023/09/21 02:03:56;;;;;;;0.00;0.00;;;;;;;;;;4957860;29;20043;-82
2023/09/21 02:06:21;;;;;;;0.00;0.00;;;;;;;;;;4942282;29;20374;-82
2023/09/21 02:08:47;;;;;;;0.00;0.00;;;;;;;;;;4980296;28;20077;-82
2023/09/21 02:11:13;;;;;;;0.00;0.00;;;;;;;;;;4976713;28;20049;-82
2023/09/21 02:13:40;;;;;;;0.00;0.00;;;;;;;;;;4977437;28;20031;-83
2023/09/21 02:16:06;;;;;;;0.00;0.00;;;;;;;;;;4991626;28;20047;-82
2023/09/21 02:18:32;;;;;;;0.00;0.00;;;;;;;;;;4959275;28;20500;-83
2023/09/21 02:20:59;;;;;;;0.00;0.00;;;;;;;;;;4958304;28;20031;-83
2023/09/21 02:23:24;;;;;;;0.00;0.00;;;;;;;;;;4941701;28;20069;-84
2023/09/21 02:25:53;;;;;;;0.00;0.00;;;;;;;;;;4941417;28;20078;-82
2023/09/21 02:28:18;;;;;;;0.00;0.00;;;;;;;;;;4941996;29;20066;-83
2023/09/21 02:30:47;;;;;;;0.00;0.00;;;;;;;;;;4941555;28;20062;-82
2023/09/21 02:33:16;;;;;;;0.00;0.00;;;;;;;;;;4941729;28;20106;-83
2023/09/21 02:35:42;;;;;;;0.00;0.00;;;;;;;;;;4924867;28;20126;-82
2023/09/21 02:38:09;;;;;;;0.00;0.00;;;;;;;;;;4959702;28;20035;-82
2023/09/21 02:40:35;;;;;;;0.00;0.00;;;;;;;;;;4941591;28;20038;-82
2023/09/21 02:43:00;;;;;;;0.00;0.00;;;;;;;;;;4940972;28;20113;-82
2023/09/21 02:45:29;;;;;;;0.00;0.00;;;;;;;;;;4956835;28;20095;-83
2023/09/21 02:48:00;;;;;;;0.00;0.00;;;;;;;;;;4958502;28;20118;-82
2023/09/21 02:50:25;;;;;;;;;;;;;;;;;;4941793;28;20027;-83
2023/09/21 02:53:01;;;;;;;0.00;0.00;;;;;;;;;;4957958;28;19915;-82
2023/09/21 02:55:27;;;;;;;0.10;0.00;;;;;;;;;;4941450;28;20046;-83
2023/09/21 02:57:58;;;;;;;0.00;0.00;;;;;;;;;;4954785;28;20389;-83
2023/09/21 03:00:29;;;;;;;0.00;0.00;;;;;;;;;;4980841;28;20038;-83
2023/09/21 03:02:56;;;;;;;0.00;0.00;;;;;;;;;;4945460;28;20045;-82
2023/09/21 03:05:24;;;;;;;0.00;0.00;;;;;;;;;;4944279;28;20039;-83
2023/09/21 03:07:50;;;;;;;0.00;0.00;;;;;;;;;;4944094;28;20364;-82
2023/09/21 03:10:21;;;;;;;0.00;0.00;;;;;;;;;;4976747;28;20035;-82
2023/09/21 03:12:48;;;;;;;0.00;0.00;;;;;;;;;;4965324;28;20023;-83
2023/09/21 03:15:16;;;;;;;0.00;0.00;;;;;;;;;;4957308;28;20042;-83
2023/09/21 03:17:45;;;;;;;0.00;0.00;;;;;;;;;;4924743;28;20039;-83
2023/09/21 03:20:12;;;;;;;0.00;0.00;;;;;;;;;;4955932;28;20588;-82
2023/09/21 03:22:39;;;;;;;0.00;0.00;;;;;;;;;;4955529;28;20050;-83
2023/09/21 03:25:11;;;;;;;0.00;0.00;;;;;;;;;;4959423;28;20037;-83
2023/09/21 03:27:38;;;;;;;0.00;0.00;;;;;;;;;;4956266;28;20031;-83
2023/09/21 03:30:05;;;;;;;0.00;0.00;;;;;;;;;;4940381;28;20019;-83
2023/09/21 03:32:31;;;;;;;0.00;0.00;;;;;;;;;;4940758;28;20074;-82
2023/09/21 03:34:56;;;;;;;0.00;0.00;;;;;;;;;;4941153;28;20027;-83
2023/09/21 03:37:22;;;;;;;0.00;0.00;;;;;;;;;;4958046;28;20034;-82
2023/09/21 03:39:47;;;;;;;0.00;0.00;;;;;;;;;;4957269;28;20058;-83
2023/09/21 03:42:13;;;;;;;0.00;0.00;;;;;;;;;;4939806;29;20373;-82
2023/09/21 03:44:42;;;;;;;0.10;0.00;;;;;;;;;;4956440;28;20031;-83
2023/09/21 03:47:11;;;;;;;0.00;0.00;;;;;;;;;;4957923;28;20023;-82
2023/09/21 03:49:37;;;;;;;0.00;0.00;;;;;;;;;;4957105;28;20042;-82
2023/09/21 03:52:04;;;;;;;0.00;0.00;;;;;;;;;;4971648;28;20092;-82
2023/09/21 03:54:29;;;;;;;0.00;0.00;;;;;;;;;;4956831;28;20376;-83
2023/09/21 03:56:55;;;;;;;0.00;0.00;;;;;;;;;;4923914;28;20043;-82
2023/09/21 03:59:21;;;;;;;0.00;0.00;;;;;;;;;;4923820;28;20095;-83
2023/09/21 04:01:46;;;;;;;0.00;0.00;;;;;;;;;;4958562;28;20089;-83
2023/09/21 04:04:17;;;;;;;0.00;0.00;;;;;;;;;;4975705;28;20038;-82
2023/09/21 04:06:44;;;;;;;0.00;0.00;;;;;;;;;;4973776;28;20386;-84
2023/09/21 04:09:09;;;;;;;0.00;0.00;;;;;;;;;;4978210;28;20033;-82
2023/09/21 04:11:35;;;;;;;0.00;0.00;;;;;;;;;;4958760;28;20377;-83
2023/09/21 04:14:01;;;;;;;0.00;0.00;;;;;;;;;;4938317;28;20443;-83
2023/09/21 04:16:28;;;;;;;0.00;0.00;;;;;;;;;;4945015;28;20477;-83
2023/09/21 04:18:54;;;;;;;0.00;0.00;;;;;;;;;;4954666;28;20065;-82
2023/09/21 04:21:20;;;;;;;0.20;0.00;;;;;;;;;;4938933;28;20086;-82
2023/09/21 04:23:46;;;;;;;0.00;0.00;;;;;;;;;;4955718;28;20417;-83
2023/09/21 04:26:12;;;;;;;0.00;0.00;;;;;;;;;;4955948;28;20113;-82
2023/09/21 04:28:37;;;;;;;0.00;0.00;;;;;;;;;;4959849;28;20038;-83
2023/09/21 04:31:03;;;;;;;0.00;0.00;;;;;;;;;;4956060;28;20031;-83
2023/09/21 04:33:28;;;;;;;0.00;0.00;;;;;;;;;;4937877;28;20091;-80
2023/09/21 04:35:54;;;;;;;0.00;0.00;;;;;;;;;;4957271;28;20162;-78
2023/09/21 04:38:20;;;;;;;0.00;0.00;;;;;;;;;;4937723;28;20026;-78
2023/09/21 04:40:48;;;;;;;0.00;0.00;;;;;;;;;;4955535;28;20031;-77
2023/09/21 04:43:16;;;;;;;0.00;0.00;;;;;;;;;;4967679;28;20034;-76
2023/09/21 04:45:41;;;;;;;0.00;0.00;;;;;;;;;;4955933;28;20182;-77
2023/09/21 04:48:07;;;;;;;0.00;0.00;;;;;;;;;;4948103;28;20137;-76
2023/09/21 04:50:33;;;;;;;0.00;0.00;;;;;;;;;;4965570;28;20047;-78
2023/09/21 04:53:04;;;;;;;0.00;0.00;;;;;;;;;;4948215;28;20032;-77
2023/09/21 04:55:31;;;;;;;0.00;0.00;;;;;;;;;;4934617;28;20031;-78
2023/09/21 04:58:00;;;;;;;0.00;0.00;;;;;;;;;;4950997;28;20495;-79
2023/09/21 05:00:29;;;;;;;0.00;0.00;;;;;;;;;;4918747;29;20032;-78
2023/09/21 05:02:56;;;;;;;0.00;0.00;;;;;;;;;;4949731;28;20100;-79
2023/09/21 05:05:26;;;;;;;0.00;0.00;;;;;;;;;;4934388;28;20038;-78
2023/09/21 05:07:52;;;;;;;0.00;0.00;;;;;;;;;;4954034;28;20040;-77
2023/09/21 05:10:19;;;;;;;0.00;0.00;;;;;;;;;;4963395;28;20035;-78
2023/09/21 05:12:48;;;;;;;0.00;0.00;;;;;;;;;;4974988;28;20038;-79
2023/09/21 05:15:15;;;;;;;0.00;0.00;;;;;;;;;;4963309;28;20130;-77
2023/09/21 05:17:42;;;;;;;0.00;0.00;;;;;;;;;;4950222;28;20049;-76
2023/09/21 05:20:11;;;;;;;0.00;0.00;;;;;;;;;;4926591;28;20035;-77
2023/09/21 05:22:47;;;;;;;0.00;0.00;;;;;;;;;;4928058;28;20450;-77
2023/09/21 05:25:12;;;;;;;0.00;0.00;;;;;;;;;;4926298;28;20645;-76
2023/09/21 05:27:38;;;;;;;0.00;0.00;;;;;;;;;;4960173;28;20035;-78
2023/09/21 05:30:05;;;;;;;0.00;0.00;;;;;;;;;;4945871;28;20398;-78
2023/09/21 05:32:32;;;;;;;0.00;0.00;;;;;;;;;;4925164;29;20110;-76
2023/09/21 05:34:59;;;;;;;0.00;0.00;;;;;;;;;;4954055;29;20044;-77
2023/09/21 05:37:24;;;;;;;0.00;0.00;;;;;;;;;;4941156;28;20338;-77
2023/09/21 05:39:50;;;;;;;0.00;0.00;;;;;;;;;;4941904;28;20058;-78
2023/09/21 05:42:15;;;;;;;0.00;0.00;;;;;;;;;;4948871;28;20043;-80
2023/09/21 05:44:45;;;;;;;0.00;0.00;;;;;;;;;;4947734;28;20027;-78
2023/09/21 05:47:12;;;;;;;0.00;0.00;;;;;;;;;;4931020;28;20035;-79
2023/09/21 05:49:38;;;;;;;0.00;0.00;;;;;;;;;;4950900;28;20114;-77
2023/09/21 05:52:11;;;;;;;0.00;0.00;;;;;;;;;;4943119;28;20122;-77
2023/09/21 05:54:37;;;;;;;0.00;0.00;;;;;;;;;;4947559;28;20035;-77
2023/09/21 05:57:03;;;;;;;0.00;0.00;;;;;;;;;;4950566;28;20035;-77
2023/09/21 05:59:31;;;;;;;0.00;0.00;;;;;;;;;;4913305;28;20031;-76
2023/09/21 06:01:59;;;;;;;0.00;0.00;;;;;;;;;;4953684;28;20457;-77
2023/09/21 06:04:25;;;;;;;0.00;0.00;;;;;;;;;;4962945;28;20045;-77
2023/09/21 06:06:51;;;;;;;0.00;0.00;;;;;;;;;;4950213;29;20020;-78
2023/09/21 06:09:20;;;;;;;0.00;0.00;;;;;;;;;;4953528;28;20035;-77
2023/09/21 06:11:46;;;;;;;0.00;0.00;;;;;;;;;;4937983;28;20027;-78
2023/09/21 06:14:15;;;;;;;0.00;0.00;;;;;;;;;;4954549;28;20480;-79
2023/09/21 06:16:44;;;;;;;0.00;0.00;;;;;;;;;;4971727;28;20637;-76
2023/09/21 06:19:11;;;;;;;0.00;0.00;;;;;;;;;;4976140;28;20078;-78
2023/09/21 06:21:41;;;;;;;0.00;0.00;;;;;;;;;;4987607;28;20035;-77
2023/09/21 06:24:07;;;;;;;0.00;0.00;;;;;;;;;;4972457;28;20023;-76
2023/09/21 06:26:34;;;;;;;0.00;0.00;;;;;;;;;;4968665;28;20037;-77
2023/09/21 06:28:59;;;;;;;0.00;0.00;;;;;;;;;;4944890;28;20035;-75
2023/09/21 06:31:25;;;;;;;0.00;0.00;;;;;;;;;;4951044;28;20093;-78
2023/09/21 06:33:53;;;;;;;0.00;0.00;;;;;;;;;;4981858;28;20370;-77
2023/09/21 06:36:20;;;;;;;0.00;0.00;;;;;;;;;;4967967;28;20031;-77
2023/09/21 06:38:47;;;;;;;0.00;0.00;;;;;;;;;;4965815;28;20168;-75
2023/09/21 06:41:13;;;;;;;0.00;0.00;;;;;;;;;;4969719;28;20039;-74
2023/09/21 06:43:40;;;;;;;0.00;0.00;;;;;;;;;;4971815;28;20046;-76
2023/09/21 06:46:05;;;;;;;0.00;0.00;;;;;;;;;;4965676;28;20079;-75
2023/09/21 06:48:31;;;;;;;0.00;0.00;;;;;;;;;;4967777;28;20069;-76
2023/09/21 06:50:57;;;;;;;0.00;0.00;;;;;;;;;;4945706;28;20055;-75
2023/09/21 06:53:24;;;;;;;0.00;0.00;;;;;;;;;;4966141;28;20441;-75
2023/09/21 06:55:50;;;;;;;0.00;0.00;;;;;;;;;;4970502;28;20515;-76
2023/09/21 06:58:16;;;;;;;0.00;0.00;;;;;;;;;;4977855;28;20105;-75
2023/09/21 07:00:42;;;;;;;0.00;0.00;;;;;;;;;;4974378;28;20043;-74
2023/09/21 07:03:09;;;;;;;0.00;0.00;;;;;;;;;;4975655;28;20078;-77
2023/09/21 07:05:34;;;;;;;0.00;0.00;;;;;;;;;;4980131;28;20038;-75
2023/09/21 07:08:00;;;;;;;0.00;0.00;;;;;;;;;;4985801;28;20054;-74
2023/09/21 07:10:26;;;;;;;0.00;0.00;;;;;;;;;;4969858;28;20050;-75
2023/09/21 07:12:51;;;;;;;0.00;0.00;;;;;;;;;;4989701;28;20128;-76
2023/09/21 07:15:19;;;;;;;0.00;0.00;;;;;;;;;;4971951;28;20511;-77
2023/09/21 07:17:46;;;;;;;0.00;0.00;;;;;;;;;;4971806;28;20030;-76
2023/09/21 07:20:11;;;;;;;0.00;0.00;;;;;;;;;;4963120;28;20039;-75
2023/09/21 07:22:37;;;;;;;0.00;0.00;;;;;;;;;;4943365;28;20035;-76
2023/09/21 07:25:03;;;;;;;0.00;0.00;;;;;;;;;;4959271;28;20039;-78
2023/09/21 07:27:29;;;;;;;0.00;0.00;;;;;;;;;;4947660;28;20159;-76
2023/09/21 07:29:57;;;;;;;0.00;0.00;;;;;;;;;;4950986;28;20042;-75
2023/09/21 07:32:25;;;;;;;0.00;0.00;;;;;;;;;;4970459;28;20109;-76
2023/09/21 07:34:51;;;;;;;0.00;0.00;;;;;;;;;;4970419;28;20026;-77
2023/09/21 07:37:17;;;;;;;0.00;0.00;;;;;;;;;;4972492;28;20515;-76
2023/09/21 07:39:43;;;;;;;0.00;0.00;;;;;;;;;;4965782;28;20030;-76
2023/09/21 07:42:09;;;;;;;0.00;0.00;;;;;;;;;;4961451;28;20037;-76
2023/09/21 07:44:35;;;;;;;0.00;0.00;;;;;;;;;;4970158;28;20038;-75
2023/09/21 07:47:00;;;;;;;0.00;0.00;;;;;;;;;;4963511;28;20035;-76
2023/09/21 07:49:26;;;;;;;0.00;0.00;;;;;;;;;;4953313;28;20545;-74
2023/09/21 07:51:55;;;;;;;0.00;0.00;;;;;;;;;;4964684;28;20031;-74
2023/09/21 07:54:21;;;;;;;0.00;0.00;;;;;;;;;;4963757;28;20145;-75
2023/09/21 07:56:48;;;;;;;0.00;0.00;;;;;;;;;;4965247;28;20314;-75
2023/09/21 07:59:15;;;;;;;0.00;0.00;;;;;;;;;;4964548;28;20037;-75
2023/09/21 08:02:00;;;;;;;0.00;0.00;;;;;;;;;;4951409;28;20476;-76
2023/09/21 08:04:28;;;;;;;0.00;0.00;;;;;;;;;;4957228;28;20034;-75
2023/09/21 08:06:55;;;;;;;0.00;0.00;;;;;;;;;;4969886;28;20035;-76
2023/09/21 08:09:21;;;;;;;0.00;0.00;;;;;;;;;;4971511;28;20035;-77
2023/09/21 08:11:47;;;;;;;0.00;0.00;;;;;;;;;;4975859;28;20456;-75
2023/09/21 08:14:13;;;;;;;0.00;0.00;;;;;;;;;;4973623;28;20472;-75
2023/09/21 08:19:43;;;;;;;0.00;0.00;;;;;;;;;;4992767;23;20098;-76
2023/09/21 08:22:09;;;;;;;0.00;0.00;;;;;;;;;;4970454;28;20034;-77
2023/09/21 08:24:36;;;;;;;0.00;0.00;;;;;;;;;;4970923;28;20035;-75
2023/09/21 08:27:03;;;;;;;0.00;0.00;;;;;;;;;;4953897;28;20456;-76
2023/09/21 08:29:31;;;;;;;0.00;0.00;;;;;;;;;;4971390;28;20081;-76
2023/09/21 08:32:34;;;;;;;0.00;0.00;;;;;;;;;;4958750;28;20035;-77
2023/09/21 08:35:33;;;;;;;0.00;0.00;;;;;;;;;;4974559;28;20033;-76
2023/09/21 08:41:35;;;;;;;0.00;0.00;;;;;;;;;;4934278;29;19914;-77
2023/09/21 08:44:01;;;;;;;0.00;0.00;;;;;;;;;;4933628;29;20177;-76
2023/09/21 08:46:27;;;;;;;0.00;0.00;;;;;;;;;;4933180;29;20134;-77
2023/09/21 08:48:55;;;;;;;0.00;0.00;;;;;;;;;;4930666;29;20098;-76
2023/09/21 08:51:21;;;;;;;0.00;0.00;;;;;;;;;;4914036;28;20035;-77
2023/09/21 08:53:50;;;;;;;0.00;0.00;;;;;;;;;;4960811;28;20054;-77
2023/09/21 08:56:16;;;;;;;0.00;0.00;;;;;;;;;;4971846;28;20030;-76
2023/09/21 08:58:42;;;;;;;0.00;0.00;;;;;;;;;;4975383;28;20053;-78
2023/09/21 09:01:08;;;;;;;0.00;0.00;;;;;;;;;;4970022;28;20031;-77
2023/09/21 09:03:34;;;;;;;0.00;0.00;;;;;;;;;;4965027;28;20530;-75
2023/09/21 09:06:00;;;;;;;0.00;0.00;;;;;;;;;;4972075;28;20170;-77
2023/09/21 09:08:31;;;;;;;0.00;0.00;;;;;;;;;;4968102;28;20031;-77
2023/09/21 09:10:57;;;;;;;0.00;0.00;;;;;;;;;;4971802;28;20023;-77
2023/09/21 09:13:32;;;;;;;0.00;0.00;;;;;;;;;;4969801;28;20030;-79
2023/09/21 09:15:59;;;;;;;0.00;0.00;;;;;;;;;;4968929;28;20039;-76
2023/09/21 09:18:26;;;;;;;0.00;0.00;;;;;;;;;;4970444;28;20054;-78
2023/09/21 09:20:52;;;;;;;0.00;0.00;;;;;;;;;;4933432;29;20074;-77
2023/09/21 09:30:48;;;;;;;0.00;0.00;;;;;;;;;;4985093;23;20110;-77
2023/09/21 09:33:15;;;;;;;0.00;0.00;;;;;;;;;;4974288;28;20117;-75
2023/09/21 09:41:18;;;;;;;0.00;0.00;;;;;;;;;;5830124;23;20066;-78
2023/09/21 09:43:43;;;;;;;0.00;0.00;;;;;;;;;;4955873;28;20038;-77
2023/09/21 09:46:11;;;;;;;0.00;0.00;;;;;;;;;;4960348;28;20034;-76
2023/09/21 09:48:43;;;;;;;0.00;0.00;;;;;;;;;;4945186;28;20369;-79
2023/09/21 09:51:11;;;;;;;0.00;0.00;;;;;;;;;;4954913;28;20046;-77
2023/09/21 09:53:38;;;;;;;0.00;0.00;;;;;;;;;;4972786;28;20472;-76
2023/09/21 09:56:08;;;;;;;0.00;0.00;;;;;;;;;;4987263;28;20545;-76
2023/09/21 09:58:42;;;;;;;;;;;;;;;;;;4951931;28;20376;-75
2023/09/21 10:01:14;;;;;;;0.00;0.00;;;;;;;;;;4969809;28;20468;-77
2023/09/21 10:04:18;;;;;;;0.00;0.00;;;;;;;;;;4957396;28;20026;-76
2023/09/21 10:06:44;;;;;;;0.00;0.00;;;;;;;;;;4972168;28;20377;-75
2023/09/21 10:09:11;;;;;;;0.00;0.00;;;;;;;;;;4920169;29;20043;-78
2023/09/21 10:11:38;;;;;;;0.00;0.00;;;;;;;;;;4937880;29;20035;-77
2023/09/21 10:14:04;;;;;;;0.00;0.00;;;;;;;;;;4937372;29;20042;-77
2023/09/21 10:16:31;;;;;;;0.00;0.00;;;;;;;;;;4952994;29;20023;-79
2023/09/21 10:19:00;;;;;;;0.00;0.00;;;;;;;;;;4956128;28;20041;-75
2023/09/21 10:21:31;;;;;;;0.00;0.00;;;;;;;;;;4974307;28;20152;-77
2023/09/21 10:24:31;;;;;;;;;;;;;;;;;;;;;
2023/09/21 10:27:01;;;;;;;0.00;0.00;;;;;;;;;;4971954;28;20051;-79
2023/09/21 10:29:33;;;;;;;0.00;0.00;;;;;;;;;;4974951;28;20034;-77
2023/09/21 10:32:05;;;;;;;0.00;0.00;;;;;;;;;;4956942;28;20039;-76
2023/09/21 10:35:06;;;;;;;0.00;0.00;;;;;;;;;;4974964;28;20121;-75
2023/09/21 10:37:32;;;;;;;0.00;0.00;;;;;;;;;;4951761;28;20035;-77
2023/09/21 10:39:58;;;;;;;0.00;0.00;;;;;;;;;;4979634;28;20053;-75
2023/09/21 10:42:29;;;;;;;0.00;0.00;;;;;;;;;;4962709;28;20076;-76
2023/09/21 10:45:04;;;;;;;0.00;0.00;;;;;;;;;;4949083;28;20081;-78
2023/09/21 10:47:33;;;;;;;0.00;0.00;;;;;;;;;;4979835;28;20038;-78
2023/09/21 10:50:12;;;;;;;;;;;;;;;;;;4948380;28;20028;-77
2023/09/21 10:52:42;;;;;;;0.00;0.00;;;;;;;;;;4982413;28;19914;-76
2023/09/21 10:55:09;;;;;;;0.00;0.00;;;;;;;;;;4971968;28;20456;-77
2023/09/21 10:57:35;;;;;;;0.00;0.00;;;;;;;;;;4955399;28;20046;-78
2023/09/21 11:00:02;;;;;;;0.00;0.00;;;;;;;;;;4954852;28;20031;-78
2023/09/21 11:02:31;;;;;;;0.00;0.00;;;;;;;;;;4968258;28;20609;-77
2023/09/21 11:04:58;;;;;;;0.00;0.00;;;;;;;;;;4988820;28;20066;-79
2023/09/21 11:07:24;;;;;;;0.00;0.00;;;;;;;;;;4970096;28;20074;-77
2023/09/21 11:09:50;;;;;;;0.00;0.00;;;;;;;;;;4976972;28;20033;-78
2023/09/21 11:12:17;;;;;;;0.00;0.00;;;;;;;;;;4976505;28;20030;-77
2023/09/21 11:14:47;;;;;;;0.00;0.00;;;;;;;;;;4957697;28;20125;-78
2023/09/21 11:17:23;;;;;;;0.00;0.00;;;;;;;;;;4975287;28;20441;-79
2023/09/21 11:19:48;;;;;;;0.00;0.00;;;;;;;;;;4940179;29;20022;-78
2023/09/21 11:22:14;;;;;;;0.00;0.00;;;;;;;;;;4945016;28;20134;-78
2023/09/21 11:24:40;;;;;;;0.00;0.00;;;;;;;;;;4990900;28;20053;-78
2023/09/21 11:27:14;;;;;;;0.00;0.00;;;;;;;;;;4975324;28;20031;-78
2023/09/21 11:29:48;;;;;;;0.00;0.00;;;;;;;;;;4972217;28;20173;-79
2023/09/21 11:32:17;;;;;;;0.00;0.00;;;;;;;;;;4969004;28;20038;-78
2023/09/21 11:34:43;;;;;;;0.00;0.00;;;;;;;;;;4961117;28;20213;-79
2023/09/21 11:37:09;;;;;;;0.00;0.00;;;;;;;;;;4996137;28;20077;-79
2023/09/21 11:39:38;;;;;;;0.00;0.00;;;;;;;;;;4977693;28;20030;-80
2023/09/21 11:42:08;;;;;;;0.00;0.00;;;;;;;;;;4995012;28;20046;-80
2023/09/21 11:44:35;;;;;;;0.00;0.00;;;;;;;;;;4977910;28;20034;-77
2023/09/21 11:47:03;;;;;;;0.00;0.00;;;;;;;;;;4958124;28;20464;-78
2023/09/21 11:49:42;;;;;;;0.00;0.00;;;;;;;;;;4990916;28;20037;-77
2023/09/21 11:52:13;;;;;;;0.00;0.00;;;;;;;;;;4975263;28;20121;-77
2023/09/21 11:54:39;;;;;;;0.00;0.00;;;;;;;;;;4993433;28;20054;-77
2023/09/21 11:57:06;;;;;;;0.00;0.00;;;;;;;;;;4978293;28;20396;-77
2023/09/21 11:59:33;;;;;;;0.00;0.00;;;;;;;;;;4993679;28;20125;-77
2023/09/21 12:02:00;;;;;;;0.00;0.00;;;;;;;;;;4960246;28;20044;-78
2023/09/21 12:04:29;;;;;;;0.00;0.00;;;;;;;;;;4961084;28;20030;-78
2023/09/21 12:06:55;;;;;;;0.00;0.00;;;;;;;;;;4994586;28;20026;-78
2023/09/21 12:09:21;;;;;;;0.00;0.00;;;;;;;;;;4977077;28;20457;-77
2023/09/21 12:11:48;;;;;;;0.00;0.00;;;;;;;;;;4961967;28;20029;-77
2023/09/21 12:14:14;;;;;;;0.00;0.00;;;;;;;;;;4978341;28;20456;-77
2023/09/21 12:16:40;;;;;;;0.00;0.00;;;;;;;;;;4999761;28;20081;-76
2023/09/21 12:19:08;;;;;;;0.00;0.00;;;;;;;;;;4997443;28;20018;-77
2023/09/21 12:21:34;;;;;;;0.00;0.00;;;;;;;;;;4995369;28;20041;-78
2023/09/21 12:24:00;;;;;;;0.00;0.00;;;;;;;;;;4995357;28;20033;-77
2023/09/21 12:26:25;;;;;;;0.00;0.00;;;;;;;;;;4995063;28;20061;-77
2023/09/21 12:28:53;;;;;;;0.00;0.00;;;;;;;;;;4994977;28;20070;-77
2023/09/21 12:31:19;;;;;;;0.00;0.00;;;;;;;;;;4994822;28;20173;-77
2023/09/21 12:33:45;;;;;;;0.00;0.00;;;;;;;;;;4977352;28;20030;-76
2023/09/21 12:36:15;;;;;;;0.00;0.00;;;;;;;;;;4977356;28;20034;-77
2023/09/21 12:38:41;;;;;;;0.00;0.00;;;;;;;;;;4996080;28;20039;-79
2023/09/21 12:41:09;;;;;;;0.00;0.00;;;;;;;;;;4997759;28;20340;-77
2023/09/21 12:43:39;;;;;;;0.00;0.00;;;;;;;;;;4997608;28;20034;-87
2023/09/21 12:46:08;;;;;;;0.00;0.00;;;;;;;;;;4981703;28;20049;-86
2023/09/21 12:48:36;;;;;;;0.00;0.00;;;;;;;;;;4988691;28;20080;-85
2023/09/21 12:51:03;;;;;;;0.00;0.00;;;;;;;;;;5014476;28;20057;-87
2023/09/21 12:53:29;;;;;;;0.00;0.00;;;;;;;;;;5012457;28;20403;-86
2023/09/21 12:55:55;;;;;;;0.00;0.00;;;;;;;;;;4990553;28;20046;-88
2023/09/21 12:58:21;;;;;;;0.00;0.00;;;;;;;;;;4996844;28;20039;-87
2023/09/21 13:00:46;;;;;;;0.00;0.00;;;;;;;;;;5002145;28;20045;-87
2023/09/21 13:03:12;;;;;;;0.00;0.00;;;;;;;;;;4984237;28;20049;-85
2023/09/21 13:05:40;;;;;;;0.00;0.00;;;;;;;;;;5011783;28;20094;-86
2023/09/21 13:08:06;;;;;;;0.00;0.00;;;;;;;;;;4998441;28;20015;-86
2023/09/21 13:10:31;;;;;;;0.00;0.00;;;;;;;;;;4993297;28;20117;-85
2023/09/21 13:12:59;;;;;;;0.00;0.00;;;;;;;;;;4974411;28;20069;-85
2023/09/21 13:15:26;;;;;;;0.00;0.00;;;;;;;;;;4958956;28;20026;-84
2023/09/21 13:17:52;;;;;;;0.00;0.00;;;;;;;;;;5002859;28;20022;-84
2023/09/21 13:20:19;;;;;;;0.00;0.00;;;;;;;;;;4985590;28;20076;-87
2023/09/21 13:22:46;;;;;;;0.00;0.00;;;;;;;;;;4982260;28;20049;-86
2023/09/21 13:25:12;;;;;;;0.00;0.00;;;;;;;;;;4997532;28;20030;-86
2023/09/21 13:27:53;;;;;;;0.00;0.00;;;;;;;;;;4983363;28;20065;-86
2023/09/21 13:30:18;;;;;;;0.00;0.00;;;;;;;;;;5001642;28;20030;-88
2023/09/21 13:32:44;;;;;;;0.00;0.00;;;;;;;;;;5005119;28;20090;-88
2023/09/21 13:35:11;;;;;;;0.00;0.00;;;;;;;;;;4969840;28;20042;-88
2023/09/21 13:37:37;;;;;;;0.00;0.00;;;;;;;;;;4999285;28;20361;-87
2023/09/21 13:40:06;;;;;;;0.00;0.00;;;;;;;;;;4983853;28;20041;-89
2023/09/21 13:42:32;;;;;;;0.00;0.00;;;;;;;;;;4998479;28;20105;-88
2023/09/21 13:44:58;;;;;;;0.00;0.00;;;;;;;;;;4981789;28;20057;-87
2023/09/21 13:47:25;;;;;;;0.00;0.00;;;;;;;;;;5016851;28;20094;-87
2023/09/21 13:49:51;;;;;;;0.00;0.00;;;;;;;;;;5008292;28;20037;-88
2023/09/21 13:52:17;;;;;;;0.00;0.00;;;;;;;;;;4999012;28;20022;-87
2023/09/21 13:54:46;;;;;;;0.00;0.00;;;;;;;;;;4973324;28;20383;-87
2023/09/21 13:57:11;;;;;;;0.00;0.00;;;;;;;;;;5002233;28;20065;-88
2023/09/21 13:59:37;;;;;;;0.00;0.00;;;;;;;;;;4984085;28;20030;-87
2023/09/21 14:02:03;;;;;;;0.00;0.00;;;;;;;;;;5000638;28;20038;-87
2023/09/21 14:04:29;;;;;;;0.00;0.00;;;;;;;;;;4964838;28;20500;-87
2023/09/21 14:06:54;;;;;;;0.00;0.00;;;;;;;;;;4984768;28;20042;-88
2023/09/21 14:09:20;;;;;;;0.00;0.00;;;;;;;;;;4981163;28;20021;-87
2023/09/21 14:11:45;;;;;;;0.00;0.00;;;;;;;;;;5001640;28;20042;-88
2023/09/21 14:14:11;;;;;;;0.00;0.00;;;;;;;;;;4965489;28;20463;-85
2023/09/21 14:16:36;;;;;;;0.00;0.00;;;;;;;;;;4998802;28;20026;-89
2023/09/21 14:19:02;;;;;;;0.00;0.00;;;;;;;;;;4966073;28;20372;-87
2023/09/21 14:21:28;;;;;;;0.00;0.00;;;;;;;;;;4993255;28;20030;-86
2023/09/21 14:23:53;;;;;;;0.00;0.00;;;;;;;;;;5014904;28;20049;-85
2023/09/21 14:26:19;;;;;;;0.00;0.00;;;;;;;;;;4979359;28;20034;-86
2023/09/21 14:28:45;;;;;;;0.00;0.00;;;;;;;;;;4980998;28;20388;-88
2023/09/21 14:31:10;;;;;;;0.00;0.00;;;;;;;;;;5009991;28;20049;-86
2023/09/21 14:33:36;;;;;;;0.00;0.00;;;;;;;;;;4990547;28;20038;-87
2023/09/21 14:36:03;;;;;;;0.00;0.00;;;;;;;;;;4980008;28;20463;-86
2023/09/21 14:38:29;;;;;;;0.00;0.00;;;;;;;;;;4996136;28;20034;-86
2023/09/21 14:40:54;;;;;;;0.00;0.00;;;;;;;;;;4996081;28;20038;-86
2023/09/21 14:43:20;;;;;;;0.00;0.00;;;;;;;;;;4962867;28;20066;-86
2023/09/21 14:45:45;;;;;;;0.00;0.00;;;;;;;;;;4962128;28;20042;-86
2023/09/21 14:48:12;;;;;;;0.00;0.00;;;;;;;;;;4996276;28;20421;-87
2023/09/21 14:50:37;;;;;;;0.00;0.00;;;;;;;;;;4979062;28;20049;-87
2023/09/21 14:53:03;;;;;;;0.00;0.00;;;;;;;;;;4989219;28;20022;-85
2023/09/21 14:55:28;;;;;;;0.00;0.00;;;;;;;;;;4983678;28;20041;-87
2023/09/21 14:57:57;;;;;;;0.00;0.00;;;;;;;;;;4980366;28;20114;-84
2023/09/21 15:00:22;;;;;;;0.00;0.00;;;;;;;;;;4996866;28;20117;-85
2023/09/21 15:02:48;;;;;;;0.00;0.00;;;;;;;;;;4979910;28;20178;-85
2023/09/21 15:05:13;;;;;;;0.00;0.00;;;;;;;;;;4962807;28;20193;-85
2023/09/21 15:07:39;;;;;;;0.00;0.00;;;;;;;;;;4996810;28;20447;-86